首页
METAR-TAF:

METAR-TAF

机场 :

贝瑟默, 阿拉巴马州, 美国

纬度: 33-18-45N, 经度: 086-55-35W, 海拔: 213米

当前天气观测

该预报发布于22分钟前的16:37 UTC
风速5节,风向多变
温度 26°C
湿度 79%
气压 1016 hPa
能見度: 16.1公里
散云层高于1900英尺
多云层高于4900英尺

METAR: KEKY 041637Z AUTO VRB05KT 10SM SCT019 BKN049 26/22 A3001 RMK AO2

时间: 11:59 (16:59 UTC)


TAF: 丢失

超过4000个机场的气象观测和天气预报(METAR&TAF报告)。

可查询的气象台以黄色和红色小点在地图上表示。

将鼠标移到小点上方,可查看气象台名称。

然后点击查看天气观测和预报。

如需切换地图:点击带黑十字的绿色按钮放大地图;点击带横线的绿色按钮缩小地图;或者点击绿色箭头查看邻近地区的地图。


METAR-TAF: